Time;durP1;ratioP1;P1;durP2;ratioP2;P2;SDS_P1;SDS_P2;PMS_P1;PMS_P2;Temp;Humidity;BMP_temperature;BMP_pressure;BME280_temperature;BME280_humidity;BME280_pressure;Samples;Min_cycle;Max_cycle;Signal;HPM_P1;HPM_P2
2022/04/21 00:02:09;;;;;;;6.38;3.50;;;9.70;69.40;;;;;;4887101;29;20524;-79
2022/04/21 00:04:35;;;;;;;3.83;3.30;;;9.50;68.50;;;;;;4910209;29;20229;-79
2022/04/21 00:07:00;;;;;;;7.57;3.67;;;9.50;70.70;;;;;;4889640;29;20050;-79
2022/04/21 00:09:26;;;;;;;4.53;3.92;;;9.50;70.20;;;;;;4887592;29;20153;-79
2022/04/21 00:11:51;;;;;;;5.43;3.10;;;9.30;70.40;;;;;;4890352;29;20060;-79
2022/04/21 00:14:17;;;;;;;5.93;3.38;;;9.20;71.10;;;;;;4885964;29;20067;-79
2022/04/21 00:16:43;;;;;;;6.88;3.75;;;9.20;72.70;;;;;;4891434;29;20450;-78
2022/04/21 00:19:08;;;;;;;6.38;3.75;;;9.20;72.90;;;;;;4888574;29;20095;-79
2022/04/21 00:24:18;;;;;;;4.63;3.22;;;9.20;73.50;;;;;;4890828;29;20458;-79
2022/04/21 00:26:43;;;;;;;6.22;3.33;;;9.10;72.40;;;;;;4904578;29;20055;-79
2022/04/21 00:29:09;;;;;;;10.02;3.35;;;9.00;73.50;;;;;;4901217;29;20066;-78
2022/04/21 00:31:34;;;;;;;8.57;3.97;;;9.00;73.70;;;;;;4873316;29;20036;-78
2022/04/21 00:34:00;;;;;;;5.13;3.53;;;9.00;75.50;;;;;;4875257;29;20553;-79
2022/04/21 00:36:25;;;;;;;5.40;3.67;;;9.00;77.70;;;;;;4889332;29;20534;-79
2022/04/21 00:38:51;;;;;;;7.70;3.58;;;9.10;77.20;;;;;;4889639;29;20116;-78
2022/04/21 00:41:16;;;;;;;7.82;4.47;;;9.10;75.50;;;;;;4871653;29;20051;-78
2022/04/21 00:43:42;;;;;;;6.72;3.85;;;9.00;75.70;;;;;;4889518;29;20028;-78
2022/04/21 00:46:12;;;;;;;6.60;3.60;;;8.80;75.80;;;;;;4904748;29;20047;-78
2022/04/21 00:48:37;;;;;;;9.48;4.25;;;8.70;77.80;;;;;;4887373;29;20067;-79
2022/04/21 00:51:03;;;;;;;6.25;3.75;;;8.70;83.10;;;;;;4886970;29;20127;-78
2022/04/21 00:53:28;;;;;;;9.60;4.82;;;8.70;81.50;;;;;;4889633;29;20028;-78
2022/04/21 00:55:54;;;;;;;8.70;4.07;;;8.70;81.20;;;;;;4888527;29;20043;-78
2022/04/21 00:58:19;;;;;;;7.40;3.80;;;8.70;81.60;;;;;;4876813;29;20047;-78
2022/04/21 01:00:45;;;;;;;7.32;4.38;;;8.50;81.10;;;;;;4887959;29;20115;-78
2022/04/21 01:03:12;;;;;;;4.78;3.90;;;8.40;82.90;;;;;;4890283;29;20064;-78
2022/04/21 01:05:37;;;;;;;6.85;4.38;;;8.20;85.00;;;;;;4909960;29;20024;-78
2022/04/21 01:08:05;;;;;;;6.85;4.60;;;8.40;87.90;;;;;;4890286;29;20032;-78
2022/04/21 01:10:35;;;;;;;4.90;4.13;;;8.40;86.80;;;;;;4902462;29;20548;-78
2022/04/21 01:13:00;;;;;;;12.27;4.10;;;8.50;88.30;;;;;;4891681;29;20041;-79
2022/04/21 01:15:26;;;;;;;6.05;4.30;;;8.50;90.60;;;;;;4887252;29;20510;-78
2022/04/21 01:17:52;;;;;;;6.80;4.57;;;8.50;91.80;;;;;;4869227;29;20025;-78
2022/04/21 01:20:19;;;;;;;7.40;5.05;;;8.30;92.20;;;;;;4876107;29;20051;-78
2022/04/21 01:22:44;;;;;;;7.00;4.30;;;8.30;94.80;;;;;;4889831;29;20428;-79
2022/04/21 01:25:11;;;;;;;8.15;5.03;;;8.30;91.80;;;;;;4901135;29;20064;-78
2022/04/21 01:27:37;;;;;;;6.15;4.60;;;8.30;90.50;;;;;;4886135;29;20036;-78
2022/04/21 01:30:04;;;;;;;7.45;4.50;;;8.30;89.10;;;;;;4905255;29;20120;-77
2022/04/21 01:32:31;;;;;;;4.93;4.40;;;8.30;89.10;;;;;;4884622;29;20029;-78
2022/04/21 01:34:57;;;;;;;6.15;4.70;;;8.30;89.90;;;;;;4883442;29;20032;-79
2022/04/21 01:42:51;;;;;;;9.45;4.68;;;8.00;98.40;;;;;;4897726;29;20047;-78
2022/04/21 01:45:17;;;;;;;6.35;4.28;;;7.80;99.90;;;;;;4888324;29;20032;-78
2022/04/21 01:47:43;;;;;;;12.98;4.60;;;7.60;99.90;;;;;;4894962;29;20509;-77
2022/04/21 01:50:08;;;;;;;9.77;5.32;;;7.70;99.90;;;;;;4890806;29;20048;-78
2022/04/21 01:52:35;;;;;;;10.00;4.85;;;7.70;99.90;;;;;;4908801;29;20088;-78
2022/04/21 01:55:02;;;;;;;7.25;4.35;;;7.60;99.90;;;;;;4891181;29;20043;-78
2022/04/21 01:57:27;;;;;;;8.18;4.80;;;7.50;99.90;;;;;;4876421;29;20083;-78
2022/04/21 01:59:53;;;;;;;9.82;5.07;;;7.60;99.90;;;;;;4890400;29;20356;-78
2022/04/21 02:02:18;;;;;;;7.57;4.65;;;7.50;99.90;;;;;;4887671;29;20108;-78
2022/04/21 02:04:44;;;;;;;9.82;5.25;;;7.60;99.90;;;;;;4886051;29;20039;-77
2022/04/21 02:07:09;;;;;;;7.43;4.88;;;7.50;99.80;;;;;;4885435;29;20048;-78
2022/04/21 02:09:35;;;;;;;6.70;4.60;;;7.20;99.90;;;;;;4894106;29;20046;-78
2022/04/21 02:12:01;;;;;;;8.13;5.40;;;7.30;99.90;;;;;;4888570;29;20088;-79
2022/04/21 02:14:27;;;;;;;6.30;4.60;;;7.40;99.90;;;;;;4877498;29;20041;-78
2022/04/21 02:16:52;;;;;;;7.63;4.72;;;7.20;99.90;;;;;;4901717;29;20036;-78
2022/04/21 02:19:18;;;;;;;7.32;5.05;;;7.10;99.90;;;;;;4892562;29;20063;-78
2022/04/21 02:21:43;;;;;;;6.90;4.47;;;7.00;99.90;;;;;;4891106;29;20051;-79
2022/04/21 02:24:09;;;;;;;8.57;4.32;;;7.20;99.90;;;;;;4892023;29;20424;-79
2022/04/21 02:26:34;;;;;;;6.72;4.30;;;7.20;99.90;;;;;;4891973;29;20040;-78
2022/04/21 02:29:00;;;;;;;7.40;5.18;;;7.20;99.90;;;;;;4874243;29;20036;-77
2022/04/21 02:31:25;;;;;;;13.18;4.70;;;7.20;99.90;;;;;;4889722;29;20479;-78
2022/04/21 02:33:51;;;;;;;10.60;4.60;;;7.10;99.90;;;;;;4892200;29;20071;-78
2022/04/21 02:36:16;;;;;;;7.80;4.68;;;7.10;99.90;;;;;;4892478;29;20075;-78
2022/04/21 02:38:42;;;;;;;8.43;4.82;;;7.00;99.90;;;;;;4887400;29;20047;-78
2022/04/21 02:41:07;;;;;;;11.63;5.32;;;7.10;99.90;;;;;;4888661;29;21116;-78
2022/04/21 02:43:33;;;;;;;11.93;5.38;;;7.10;99.90;;;;;;4905925;29;20547;-78
2022/04/21 02:45:59;;;;;;;8.48;4.93;;;7.00;99.90;;;;;;4890576;29;20097;-78
2022/04/21 02:48:24;;;;;;;13.88;5.15;;;6.90;99.90;;;;;;4886229;29;20507;-78
2022/04/21 02:50:50;;;;;;;13.00;5.85;;;6.80;99.90;;;;;;4893132;29;20028;-78
2022/04/21 02:53:17;;;;;;;5.05;4.50;;;6.80;99.90;;;;;;4876550;29;20035;-78
2022/04/21 02:58:26;;;;;;;7.53;5.13;;;6.80;99.90;;;;;;4904708;29;20055;-78
2022/04/21 03:00:52;;;;;;;6.38;4.40;;;6.70;99.90;;;;;;4891663;29;20028;-78
2022/04/21 03:03:17;;;;;;;7.78;5.45;;;6.70;99.90;;;;;;4919347;29;20036;-78
2022/04/21 03:05:43;;;;;;;8.93;5.50;;;6.80;99.90;;;;;;4891669;29;20081;-78
2022/04/21 03:08:08;;;;;;;7.63;4.75;;;6.80;99.90;;;;;;4872400;29;20033;-78
2022/04/21 03:10:34;;;;;;;10.40;4.88;;;6.70;99.90;;;;;;4887088;29;20025;-78
2022/04/21 03:12:59;;;;;;;8.65;5.32;;;6.70;99.90;;;;;;4888767;29;20172;-77
2022/04/21 03:15:25;;;;;;;9.18;5.25;;;6.70;99.90;;;;;;4890608;29;20040;-78
2022/04/21 03:17:51;;;;;;;6.63;5.05;;;6.60;99.90;;;;;;4892547;29;20044;-78
2022/04/21 03:25:45;;;;;;;12.50;5.65;;;6.50;99.90;;;;;;4892674;29;20526;-78
2022/04/21 03:28:11;;;;;;;7.78;5.97;;;6.50;99.90;;;;;;4885001;29;20060;-78
2022/04/21 03:30:38;;;;;;;10.73;5.45;;;6.50;99.90;;;;;;4889229;29;20032;-78
2022/04/21 03:33:03;;;;;;;7.07;4.43;;;6.50;99.90;;;;;;4892259;29;20036;-78
2022/04/21 03:35:29;;;;;;;8.45;4.43;;;6.60;99.90;;;;;;4889278;29;20535;-78
2022/04/21 03:37:55;;;;;;;4.88;3.42;;;6.80;99.90;;;;;;4903676;29;20076;-77
2022/04/21 03:40:21;;;;;;;9.32;4.93;;;6.90;99.90;;;;;;4923410;29;20043;-77
2022/04/21 03:42:47;;;;;;;10.13;5.53;;;6.80;99.90;;;;;;4903318;29;20040;-77
2022/04/21 03:45:12;;;;;;;11.88;5.57;;;6.60;99.90;;;;;;4890300;29;20040;-77
2022/04/21 03:47:39;;;;;;;9.18;6.38;;;6.60;99.90;;;;;;4891642;29;20153;-77
2022/04/21 03:50:05;;;;;;;13.38;5.75;;;6.50;99.90;;;;;;4889833;29;20371;-77
2022/04/21 03:52:31;;;;;;;12.68;6.85;;;6.30;99.90;;;;;;4891019;29;20044;-79
2022/04/21 03:54:57;;;;;;;8.18;6.22;;;6.20;99.90;;;;;;4891873;29;20397;-77
2022/04/21 03:57:22;;;;;;;10.35;6.38;;;6.20;99.90;;;;;;4891122;29;20111;-79
2022/04/21 03:59:48;;;;;;;10.45;6.35;;;6.10;99.90;;;;;;4890374;29;20535;-77
2022/04/21 04:02:13;;;;;;;10.48;6.10;;;6.00;99.90;;;;;;4881693;29;20047;-77
2022/04/21 04:04:39;;;;;;;11.30;6.70;;;5.90;99.90;;;;;;4900677;29;20508;-77
2022/04/21 04:12:34;;;;;;;10.60;6.63;;;5.70;99.90;;;;;;4902400;29;20112;-78
2022/04/21 04:15:00;;;;;;;9.88;6.28;;;5.70;99.90;;;;;;4876604;29;20036;-78
2022/04/21 04:17:26;;;;;;;9.38;7.15;;;5.70;99.90;;;;;;4884292;29;20520;-79
2022/04/21 04:19:52;;;;;;;12.70;6.63;;;5.70;99.90;;;;;;4892137;29;20055;-79
2022/04/21 04:22:17;;;;;;;10.77;6.93;;;5.70;99.90;;;;;;4873288;29;20100;-78
2022/04/21 04:24:46;;;;;;;12.73;7.35;;;5.80;99.90;;;;;;4906135;29;20044;-79
2022/04/21 04:27:11;;;;;;;8.10;6.40;;;5.80;99.90;;;;;;4889722;29;20111;-78
2022/04/21 04:29:37;;;;;;;12.98;6.93;;;5.60;99.90;;;;;;4890798;29;20056;-78
2022/04/21 04:32:03;;;;;;;9.52;6.28;;;5.50;99.90;;;;;;4888706;29;20036;-79
2022/04/21 04:34:28;;;;;;;10.15;6.78;;;5.50;99.90;;;;;;4887751;29;20270;-78
2022/04/21 04:36:54;;;;;;;10.10;6.70;;;5.40;99.90;;;;;;4904815;29;20032;-78
2022/04/21 04:39:19;;;;;;;9.18;6.47;;;5.60;99.90;;;;;;4890751;29;20039;-78
2022/04/21 04:44:29;;;;;;;10.68;7.25;;;5.80;99.90;;;;;;4900911;29;20035;-79
2022/04/21 04:46:55;;;;;;;9.77;6.53;;;5.80;99.90;;;;;;4881908;29;20028;-78
2022/04/21 04:49:21;;;;;;;11.18;7.10;;;5.70;99.90;;;;;;4890504;29;20033;-78
2022/04/21 04:51:46;;;;;;;9.18;7.18;;;5.60;99.90;;;;;;4890864;29;20416;-78
2022/04/21 04:54:13;;;;;;;15.98;8.52;;;5.60;99.90;;;;;;4891702;29;20028;-78
2022/04/21 04:56:40;;;;;;;12.32;7.88;;;5.50;99.90;;;;;;4889210;29;20123;-78
2022/04/21 04:59:05;;;;;;;12.15;7.70;;;5.40;99.90;;;;;;4891078;29;20052;-78
2022/04/21 05:01:35;;;;;;;11.80;7.53;;;5.50;99.90;;;;;;4884243;29;20036;-78
2022/04/21 05:04:19;;;;;;;9.73;7.32;;;5.50;99.90;;;;;;4901200;29;20093;-78
2022/04/21 05:06:49;;;;;;;10.95;7.55;;;5.60;99.90;;;;;;4904770;29;20095;-78
2022/04/21 05:09:16;;;;;;;16.05;7.35;;;5.60;99.90;;;;;;4886950;29;20163;-77
2022/04/21 05:11:43;;;;;;;10.30;7.20;;;5.70;99.90;;;;;;4874797;29;20459;-78
2022/04/21 05:14:09;;;;;;;9.65;7.07;;;5.80;99.90;;;;;;4890028;29;20037;-78
2022/04/21 05:16:36;;;;;;;14.23;8.40;;;5.90;99.90;;;;;;4901629;29;20028;-78
2022/04/21 05:19:13;;;;;;;13.02;8.13;;;6.00;99.90;;;;;;4890352;29;20040;-78
2022/04/21 05:21:39;;;;;;;10.10;7.10;;;6.10;99.90;;;;;;4885426;29;20040;-78
2022/04/21 05:24:05;;;;;;;11.70;7.38;;;6.20;99.90;;;;;;4887596;29;20557;-78
2022/04/21 05:26:31;;;;;;;12.60;7.50;;;6.30;99.90;;;;;;4874585;29;20042;-78
2022/04/21 05:28:59;;;;;;;10.70;6.93;;;6.40;99.90;;;;;;4885776;29;20429;-78
2022/04/21 05:31:26;;;;;;;8.13;6.32;;;6.50;99.90;;;;;;4890368;29;20044;-79
2022/04/21 05:33:54;;;;;;;10.18;6.93;;;6.60;99.90;;;;;;4891417;29;20094;-78
2022/04/21 05:36:20;;;;;;;10.55;6.10;;;6.80;99.90;;;;;;4873219;29;20119;-78
2022/04/21 05:38:47;;;;;;;13.82;7.18;;;6.80;99.90;;;;;;4869717;29;20504;-78
2022/04/21 05:41:15;;;;;;;10.43;6.75;;;7.00;99.90;;;;;;4886319;29;20497;-78
2022/04/21 05:43:44;;;;;;;7.88;6.50;;;7.10;99.90;;;;;;4889897;29;20572;-78
2022/04/21 05:46:14;;;;;;;9.10;6.82;;;7.10;99.90;;;;;;4890636;29;20048;-79
2022/04/21 05:48:40;;;;;;;9.70;6.43;;;7.20;99.90;;;;;;4890263;29;20396;-78
2022/04/21 05:51:06;;;;;;;9.80;6.13;;;7.30;99.90;;;;;;4872784;29;20036;-78
2022/04/21 05:53:34;;;;;;;10.40;6.45;;;7.50;99.90;;;;;;4890482;29;20032;-78
2022/04/21 05:56:00;;;;;;;10.75;5.90;;;7.60;99.90;;;;;;4902419;29;20051;-78
2022/04/21 05:58:26;;;;;;;10.77;5.97;;;7.70;99.90;;;;;;4889079;29;20029;-77
2022/04/21 06:00:52;;;;;;;7.85;6.18;;;7.90;99.90;;;;;;4873065;29;20035;-78
2022/04/21 06:03:18;;;;;;;9.68;6.18;;;8.00;99.90;;;;;;4875098;29;20140;-79
2022/04/21 06:05:43;;;;;;;8.75;5.95;;;8.00;99.90;;;;;;4903052;29;20139;-79
2022/04/21 06:08:09;;;;;;;11.85;6.65;;;8.20;99.90;;;;;;4872703;29;20039;-79
2022/04/21 06:10:35;;;;;;;11.48;6.55;;;8.30;99.90;;;;;;4888009;29;20567;-79
2022/04/21 06:13:03;;;;;;;13.80;6.43;;;8.40;99.90;;;;;;4887687;29;20112;-79
2022/04/21 06:15:32;;;;;;;12.43;6.75;;;8.50;99.90;;;;;;4875761;29;20036;-80
2022/04/21 06:18:01;;;;;;;11.57;5.55;;;8.70;99.90;;;;;;4890729;29;20036;-79
2022/04/21 06:20:27;;;;;;;9.13;5.57;;;8.80;99.90;;;;;;4871040;29;20436;-79
2022/04/21 06:22:53;;;;;;;10.13;6.35;;;8.90;99.90;;;;;;4892231;29;20039;-77
2022/04/21 06:25:21;;;;;;;8.30;5.65;;;9.00;99.90;;;;;;4877239;29;20051;-79
2022/04/21 06:27:47;;;;;;;7.78;4.75;;;9.10;99.90;;;;;;4893831;29;20101;-79
2022/04/21 06:30:12;;;;;;;8.77;6.03;;;9.30;99.90;;;;;;4893357;29;20496;-80
2022/04/21 06:32:38;;;;;;;14.00;6.47;;;9.40;99.90;;;;;;4891600;29;20503;-80
2022/04/21 06:35:04;;;;;;;8.55;6.47;;;9.60;99.90;;;;;;4878361;29;20108;-79
2022/04/21 06:37:30;;;;;;;8.25;5.55;;;9.80;99.90;;;;;;4879633;29;20033;-79
2022/04/21 06:39:56;;;;;;;10.20;5.90;;;9.90;99.90;;;;;;4874337;29;20040;-79
2022/04/21 06:42:21;;;;;;;13.68;6.10;;;10.10;99.90;;;;;;4887329;29;20032;-79
2022/04/21 06:48:04;;;;;;;9.80;5.40;;;10.30;99.90;;;;;;4889977;29;20038;-80
2022/04/21 06:50:23;;;;;;;9.65;5.15;;;10.50;99.90;;;;;;4898348;29;20063;-79
2022/04/21 06:52:48;;;;;;;8.07;4.85;;;10.60;99.90;;;;;;4891752;29;20044;-80
2022/04/21 06:55:14;;;;;;;7.47;4.72;;;10.70;99.90;;;;;;4892398;29;20039;-79
2022/04/21 06:57:39;;;;;;;9.60;5.03;;;10.90;99.90;;;;;;4906397;29;20119;-80
2022/04/21 07:00:05;;;;;;;15.18;4.88;;;11.10;99.90;;;;;;4872827;29;20084;-80
2022/04/21 07:02:31;;;;;;;8.25;4.95;;;11.30;99.90;;;;;;4891187;29;20123;-79
2022/04/21 07:05:10;;;;;;;9.07;4.45;;;11.40;99.90;;;;;;4870924;29;20051;-79
2022/04/21 07:07:36;;;;;;;5.47;4.03;;;11.60;99.90;;;;;;4905237;29;20028;-79
2022/04/21 07:10:01;;;;;;;6.72;4.38;;;11.70;99.90;;;;;;4890343;29;20041;-80
2022/04/21 07:12:30;;;;;;;8.45;4.45;;;11.80;99.90;;;;;;4867710;29;20067;-79
2022/04/21 07:15:03;;;;;;;8.32;4.97;;;12.00;99.90;;;;;;4892676;29;20215;-79
2022/04/21 07:17:29;;;;;;;7.20;4.82;;;12.10;99.90;;;;;;4892412;29;20044;-80
2022/04/21 07:19:54;;;;;;;4.55;4.13;;;12.20;99.90;;;;;;4890183;29;20099;-80
2022/04/21 07:22:20;;;;;;;10.80;4.50;;;12.30;99.90;;;;;;4893876;29;20122;-79
2022/04/21 07:24:49;;;;;;;7.60;3.78;;;12.40;99.90;;;;;;4888945;29;20047;-79
2022/04/21 07:27:16;;;;;;;8.80;3.95;;;12.50;99.00;;;;;;4888291;29;20052;-80
2022/04/21 07:29:42;;;;;;;6.13;3.85;;;12.70;98.60;;;;;;4923875;28;20050;-80
2022/04/21 07:32:08;;;;;;;8.50;4.18;;;12.80;99.30;;;;;;4889393;29;20047;-80
2022/04/21 07:34:34;;;;;;;6.63;4.13;;;12.80;99.20;;;;;;4907680;29;20051;-78
2022/04/21 07:36:59;;;;;;;6.40;3.63;;;12.90;98.50;;;;;;4872095;29;20036;-79
2022/04/21 07:39:25;;;;;;;6.03;3.67;;;13.10;96.10;;;;;;4912574;29;20506;-80
2022/04/21 07:41:51;;;;;;;9.52;4.53;;;13.30;96.10;;;;;;4892707;29;20032;-79
2022/04/21 07:44:17;;;;;;;4.47;3.80;;;13.40;96.10;;;;;;4889290;29;20047;-79
2022/04/21 07:46:42;;;;;;;4.72;3.60;;;13.50;96.30;;;;;;4892988;29;20039;-79
2022/04/21 07:53:12;;;;;;;6.45;4.57;;;13.70;96.20;;;;;;4888730;29;20047;-80
2022/04/21 07:54:38;;;;;;;8.32;3.42;;;13.80;95.20;;;;;;4889927;29;20089;-80
2022/04/21 07:57:03;;;;;;;8.30;4.22;;;13.90;92.90;;;;;;4887507;29;20036;-80
2022/04/21 07:59:29;;;;;;;7.40;3.60;;;13.90;92.50;;;;;;4877037;29;20037;-78
2022/04/21 08:01:55;;;;;;;9.15;3.45;;;14.00;92.60;;;;;;4875624;29;20551;-79
2022/04/21 08:04:21;;;;;;;6.70;3.72;;;14.10;92.20;;;;;;4889732;29;20402;-79
2022/04/21 08:06:47;;;;;;;6.90;3.97;;;14.20;92.70;;;;;;4892704;29;20036;-79
2022/04/21 08:09:12;;;;;;;12.60;4.78;;;14.30;92.90;;;;;;4868864;29;20123;-79
2022/04/21 08:11:38;;;;;;;8.43;3.90;;;14.40;92.40;;;;;;4890214;29;20127;-79
2022/04/21 08:14:03;;;;;;;5.32;3.72;;;14.40;91.90;;;;;;4888703;29;20389;-79
2022/04/21 08:16:29;;;;;;;4.85;3.60;;;14.50;91.00;;;;;;4888916;29;20457;-80
2022/04/21 08:19:00;;;;;;;6.10;3.25;;;14.70;91.00;;;;;;4888414;29;20543;-79
2022/04/21 08:21:26;;;;;;;7.35;3.40;;;14.80;89.30;;;;;;4889017;29;20024;-80
2022/04/21 08:23:52;;;;;;;6.82;3.10;;;14.90;90.00;;;;;;4889925;29;20437;-80
2022/04/21 08:34:31;;;;;;;4.45;3.35;;;15.20;81.50;;;;;;4890216;29;20511;-80
2022/04/21 08:36:57;;;;;;;5.15;3.38;;;15.30;77.80;;;;;;4889363;29;20033;-80
2022/04/21 08:39:23;;;;;;;3.47;2.40;;;15.30;75.60;;;;;;4877092;29;20032;-79
2022/04/21 08:41:51;;;;;;;5.72;3.00;;;15.30;76.30;;;;;;4891742;29;20096;-80
2022/04/21 08:44:19;;;;;;;7.85;3.70;;;15.40;76.40;;;;;;4874047;29;20032;-80
2022/04/21 08:46:46;;;;;;;6.38;3.00;;;15.40;77.00;;;;;;4889620;29;20060;-81
2022/04/21 08:49:12;;;;;;;3.80;2.78;;;15.30;76.00;;;;;;4874991;29;20067;-80
2022/04/21 08:51:38;;;;;;;6.75;3.53;;;15.40;72.30;;;;;;4890947;29;20527;-80
2022/04/21 08:54:04;;;;;;;3.80;2.95;;;15.40;74.50;;;;;;4890486;29;20044;-81
2022/04/21 08:56:29;;;;;;;6.82;2.80;;;15.40;72.10;;;;;;4882265;29;20215;-80
2022/04/21 08:58:55;;;;;;;4.03;3.05;;;15.50;70.70;;;;;;4876475;29;20028;-80
2022/04/21 09:01:21;;;;;;;5.53;2.65;;;15.60;73.30;;;;;;4875803;29;20059;-80
2022/04/21 09:03:48;;;;;;;4.40;2.60;;;15.80;70.10;;;;;;4891910;29;20024;-80
2022/04/21 09:06:13;;;;;;;7.25;2.67;;;15.90;69.10;;;;;;4891429;29;20028;-80
2022/04/21 09:08:39;;;;;;;5.32;3.08;;;16.00;70.10;;;;;;4904699;29;20396;-80
2022/04/21 09:11:08;;;;;;;8.80;3.53;;;16.00;70.40;;;;;;4873194;29;20040;-80
2022/04/21 09:13:38;;;;;;;8.48;3.83;;;16.00;68.80;;;;;;4891208;29;20032;-80
2022/04/21 09:16:05;;;;;;;8.10;3.17;;;16.10;69.40;;;;;;4886941;29;20061;-80
2022/04/21 09:18:44;;;;;;;5.20;2.58;;;16.20;69.00;;;;;;4889212;29;20029;-80
2022/04/21 09:21:16;;;;;;;6.68;2.85;;;16.30;70.20;;;;;;4877985;29;20036;-80
2022/04/21 09:23:46;;;;;;;5.93;2.17;;;16.50;68.40;;;;;;4882680;29;20068;-81
2022/04/21 09:26:14;;;;;;;4.47;2.15;;;16.70;65.30;;;;;;4870463;29;20116;-81
2022/04/21 09:28:39;;;;;;;4.47;2.13;;;16.70;64.70;;;;;;4876886;29;20028;-81
2022/04/21 09:31:06;;;;;;;7.18;2.22;;;16.80;64.50;;;;;;4891121;29;20547;-81
2022/04/21 09:33:33;;;;;;;2.30;2.10;;;17.00;64.30;;;;;;4890593;29;20128;-81
2022/04/21 09:36:04;;;;;;;7.13;2.65;;;17.20;64.60;;;;;;4889219;29;20073;-81
2022/04/21 09:38:29;;;;;;;4.57;2.00;;;17.30;63.60;;;;;;4874436;29;20037;-81
2022/04/21 09:40:55;;;;;;;4.93;2.20;;;17.40;63.90;;;;;;4892002;29;20020;-81
2022/04/21 09:43:30;;;;;;;4.47;2.08;;;17.50;65.60;;;;;;4889657;29;20021;-81
2022/04/21 09:46:16;;;;;;;9.27;2.65;;;17.60;63.90;;;;;;4902636;29;20024;-81
2022/04/21 09:48:43;;;;;;;3.72;2.65;;;17.60;62.70;;;;;;4889064;29;20032;-81
2022/04/21 09:51:15;;;;;;;8.30;2.65;;;17.80;65.40;;;;;;4880158;29;20047;-81
2022/04/21 09:53:58;;;;;;;4.57;2.05;;;18.00;63.70;;;;;;4922346;28;20504;-82
2022/04/21 09:56:32;;;;;;;4.28;2.47;;;18.10;64.70;;;;;;4875689;29;20031;-82
2022/04/21 09:59:07;;;;;;;5.57;2.60;;;18.40;65.30;;;;;;4909760;29;20024;-82
2022/04/21 10:01:36;;;;;;;5.70;3.10;;;18.70;63.60;;;;;;4889957;29;20396;-81
2022/04/21 10:04:04;;;;;;;4.97;2.65;;;18.90;61.90;;;;;;4877148;29;20043;-82
2022/04/21 10:06:37;;;;;;;7.15;2.60;;;19.00;62.10;;;;;;4910014;29;20077;-82
2022/04/21 10:09:03;;;;;;;4.97;2.53;;;19.20;58.40;;;;;;4895993;29;20067;-82
2022/04/21 10:11:28;;;;;;;4.40;2.75;;;19.30;58.40;;;;;;4894942;29;20056;-83
2022/04/21 10:13:55;;;;;;;7.05;2.30;;;19.50;54.90;;;;;;4893178;29;20580;-82
2022/04/21 10:16:22;;;;;;;3.63;2.50;;;19.30;55.10;;;;;;4881474;29;20074;-81
2022/04/21 10:18:50;;;;;;;7.68;2.30;;;19.40;55.90;;;;;;4891506;29;20059;-81
2022/04/21 10:21:36;;;;;;;8.10;2.88;;;19.50;58.00;;;;;;4910080;29;20453;-82
2022/04/21 10:24:02;;;;;;;7.32;2.88;;;19.60;58.70;;;;;;4911683;29;20502;-82
2022/04/21 10:26:40;;;;;;;2.63;2.42;;;19.70;57.00;;;;;;4893749;29;20032;-82
2022/04/21 10:29:17;;;;;;;4.50;3.47;;;19.80;57.40;;;;;;4895578;29;20431;-82
2022/04/21 10:31:59;;;;;;;7.80;3.28;;;20.00;56.70;;;;;;4903896;29;20040;-81
2022/04/21 10:34:37;;;;;;;5.53;3.50;;;20.10;54.90;;;;;;4901872;29;20123;-82
2022/04/21 10:37:12;;;;;;;6.00;3.28;;;20.30;55.70;;;;;;4887359;29;20039;-83
2022/04/21 10:39:39;;;;;;;8.93;3.28;;;20.30;54.90;;;;;;4910445;29;20033;-82
2022/04/21 10:42:14;;;;;;;4.22;3.10;;;20.50;55.10;;;;;;4877568;29;20035;-82
2022/04/21 10:44:41;;;;;;;3.67;3.03;;;20.50;54.70;;;;;;4891976;29;20036;-83
2022/04/21 10:47:25;;;;;;;4.57;3.03;;;20.60;53.80;;;;;;4878812;29;20523;-83
2022/04/21 10:49:57;;;;;;;8.32;2.83;;;20.70;53.50;;;;;;4900761;29;20039;-83
2022/04/21 10:57:51;;;;;;;3.40;2.60;;;20.70;53.40;;;;;;4910171;29;20035;-84
2022/04/21 11:00:29;;;;;;;7.15;2.42;;;20.80;52.10;;;;;;4884792;29;20039;-84
2022/04/21 11:03:13;;;;;;;6.55;3.00;;;20.80;51.20;;;;;;4892538;29;20036;-84
2022/04/21 11:05:39;;;;;;;5.72;3.05;;;20.90;51.40;;;;;;4896209;29;20033;-84
2022/04/21 11:08:11;;;;;;;5.97;3.03;;;21.00;51.40;;;;;;4894996;29;20323;-84
2022/04/21 11:10:37;;;;;;;4.88;2.75;;;21.20;50.50;;;;;;4881756;29;20044;-85
2022/04/21 11:13:03;;;;;;;3.83;2.58;;;21.20;50.40;;;;;;4912867;29;20098;-84
2022/04/21 11:15:36;;;;;;;4.55;2.45;;;21.30;49.30;;;;;;4894467;29;20072;-85
2022/04/21 11:18:15;;;;;;;5.72;2.78;;;21.70;50.30;;;;;;4910800;29;20028;-85
2022/04/21 11:20:42;;;;;;;4.88;2.70;;;21.70;49.90;;;;;;4916409;29;20036;-85
2022/04/21 11:23:47;;;;;;;5.93;2.50;;;21.80;50.80;;;;;;4899284;29;20092;-85
2022/04/21 11:26:18;;;;;;;3.47;2.58;;;22.00;50.40;;;;;;4918514;29;20052;-86
2022/04/21 11:28:45;;;;;;;4.28;2.90;;;22.00;50.10;;;;;;4890819;29;20500;-86
2022/04/21 11:31:15;;;;;;;7.13;3.63;;;22.00;48.70;;;;;;4893039;29;20028;-86
2022/04/21 11:33:47;;;;;;;8.68;3.50;;;21.80;49.90;;;;;;4896138;29;20480;-86
2022/04/21 11:36:15;;;;;;;4.28;3.13;;;22.00;47.80;;;;;;4894245;29;20115;-86
2022/04/21 11:38:42;;;;;;;4.40;2.95;;;21.90;49.20;;;;;;4888840;29;20068;-86
2022/04/21 11:41:13;;;;;;;5.00;3.30;;;21.80;49.50;;;;;;4890987;29;20336;-85
2022/04/21 11:43:53;;;;;;;5.63;3.47;;;21.90;48.60;;;;;;4884025;29;20500;-85
2022/04/21 11:46:32;;;;;;;7.57;3.25;;;21.90;48.10;;;;;;4897845;28;20047;-86
2022/04/21 11:49:00;;;;;;;7.78;3.58;;;22.00;48.40;;;;;;4895306;29;20059;-87
2022/04/21 11:51:31;;;;;;;4.60;3.17;;;22.10;47.50;;;;;;4891966;29;20052;-88
2022/04/21 11:54:08;;;;;;;6.65;3.22;;;21.80;49.10;;;;;;4895027;29;20031;-85
2022/04/21 11:56:34;;;;;;;6.47;3.30;;;22.00;49.40;;;;;;4895630;29;20047;-88
2022/04/21 11:59:08;;;;;;;5.47;3.55;;;22.00;49.10;;;;;;4893219;29;20032;-88
2022/04/21 12:07:16;;;;;;;9.50;2.97;;;22.00;49.00;;;;;;4894797;29;20035;-89
2022/04/21 12:09:41;;;;;;;6.88;3.45;;;22.00;48.50;;;;;;4912468;29;20024;-88
2022/04/21 12:12:08;;;;;;;4.97;3.42;;;21.80;48.40;;;;;;4879102;29;20044;-89
2022/04/21 12:14:34;;;;;;;13.50;3.65;;;21.90;47.80;;;;;;4894210;29;20172;-87
2022/04/21 12:17:08;;;;;;;7.50;3.45;;;21.90;47.30;;;;;;4890161;29;20036;-85
2022/04/21 12:19:44;;;;;;;3.40;2.45;;;21.80;47.80;;;;;;4894722;29;20032;-87
2022/04/21 12:22:11;;;;;;;3.60;2.70;;;21.70;49.10;;;;;;4883507;29;20087;-86
2022/04/21 12:24:47;;;;;;;6.70;3.25;;;21.80;49.70;;;;;;4892778;29;20345;-88
2022/04/21 12:27:12;;;;;;;;;;;21.80;49.10;;;;;;4895073;29;20040;-88
2022/04/21 12:29:57;;;;;;;7.13;3.53;;;21.70;47.60;;;;;;4929330;29;19939;-88
2022/04/21 12:32:28;;;;;;;6.95;4.07;;;21.60;48.00;;;;;;4898622;29;20032;-88
2022/04/21 12:34:55;;;;;;;8.05;3.53;;;21.70;48.50;;;;;;4910676;29;20048;-87
2022/04/21 12:37:31;;;;;;;8.65;3.83;;;21.80;49.20;;;;;;4879972;29;20043;-88
2022/04/21 12:39:57;;;;;;;;;;;21.90;49.00;;;;;;4878798;29;20498;-88
2022/04/21 12:42:24;;;;;;;8.80;3.35;;;22.00;47.90;;;;;;4896946;29;19911;-89
2022/04/21 12:44:53;;;;;;;10.18;3.80;;;22.00;48.90;;;;;;4895143;29;20193;-89
2022/04/21 12:47:19;;;;;;;5.45;3.70;;;22.10;48.30;;;;;;4878659;29;20038;-86
2022/04/21 12:50:23;;;;;;;4.45;3.35;;;22.20;48.20;;;;;;4877375;29;20040;-88
2022/04/21 12:52:57;;;;;;;5.53;3.78;;;22.30;48.70;;;;;;4852726;29;20047;-85
2022/04/21 12:55:26;;;;;;;7.25;3.47;;;22.30;49.40;;;;;;4870217;29;20485;-88
2022/04/21 12:58:05;;;;;;;4.93;3.60;;;22.60;49.20;;;;;;4887895;29;20067;-88
2022/04/21 13:00:32;;;;;;;6.10;3.55;;;22.80;48.80;;;;;;4875903;29;20036;-86
2022/04/21 13:02:57;;;;;;;10.35;4.00;;;22.90;49.70;;;;;;4884601;29;20032;-87
2022/04/21 13:05:23;;;;;;;6.65;3.47;;;23.00;49.60;;;;;;4892383;29;20040;-87
2022/04/21 13:07:51;;;;;;;5.95;4.10;;;23.10;49.00;;;;;;4888437;29;20520;-85
2022/04/21 13:10:16;;;;;;;6.65;4.30;;;23.20;49.80;;;;;;4872671;29;20028;-86
2022/04/21 13:12:42;;;;;;;5.50;4.50;;;23.40;49.40;;;;;;4887457;29;20511;-86
2022/04/21 13:15:09;;;;;;;5.80;3.78;;;23.40;49.40;;;;;;4885428;29;20040;-87
2022/04/21 13:17:34;;;;;;;5.43;3.63;;;23.50;49.40;;;;;;4903818;29;20028;-87
2022/04/21 13:20:00;;;;;;;9.32;4.22;;;23.70;48.80;;;;;;4870348;29;20064;-86
2022/04/21 13:22:26;;;;;;;6.55;3.72;;;23.60;47.50;;;;;;4875040;29;20051;-85
2022/04/21 13:24:51;;;;;;;13.18;6.57;;;23.50;47.60;;;;;;4902266;29;20048;-85
2022/04/21 13:27:19;;;;;;;7.95;4.57;;;23.50;48.70;;;;;;4876709;29;20075;-84
2022/04/21 13:29:44;;;;;;;8.68;4.18;;;23.50;47.70;;;;;;4876802;29;20382;-85
2022/04/21 13:34:54;;;;;;;5.50;3.40;;;23.20;49.00;;;;;;4895508;29;20127;-84
2022/04/21 13:37:20;;;;;;;5.40;3.55;;;23.30;48.80;;;;;;4877550;29;20438;-84
2022/04/21 13:39:46;;;;;;;4.80;4.07;;;23.30;49.10;;;;;;4892841;29;20052;-83
2022/04/21 13:42:12;;;;;;;8.90;4.03;;;23.20;47.60;;;;;;4893922;29;20496;-83
2022/04/21 13:44:38;;;;;;;5.30;4.43;;;23.10;48.20;;;;;;4894552;29;20035;-83
2022/04/21 13:47:05;;;;;;;5.55;3.92;;;22.90;48.20;;;;;;4893074;29;20040;-83